sensor_id;sensor_type;location;lat;lon;timestamp;temperature;humidity
70107;DHT22;57473;37.508;15.080;2022-11-14T00:01:10;14.40;98.60
70107;DHT22;57473;37.508;15.080;2022-11-14T00:03:57;14.40;98.40
70107;DHT22;57473;37.508;15.080;2022-11-14T00:06:43;14.50;98.20
70107;DHT22;57473;37.508;15.080;2022-11-14T00:09:29;14.60;97.70
70107;DHT22;57473;37.508;15.080;2022-11-14T00:12:15;14.60;97.20
70107;DHT22;57473;37.508;15.080;2022-11-14T00:15:01;14.70;97.10
70107;DHT22;57473;37.508;15.080;2022-11-14T00:17:47;14.70;96.70
70107;DHT22;57473;37.508;15.080;2022-11-14T00:20:33;14.80;96.40
70107;DHT22;57473;37.508;15.080;2022-11-14T00:23:19;14.80;96.00
70107;DHT22;57473;37.508;15.080;2022-11-14T00:26:06;14.80;95.80
70107;DHT22;57473;37.508;15.080;2022-11-14T00:28:53;14.70;96.00
70107;DHT22;57473;37.508;15.080;2022-11-14T00:31:39;14.60;96.10
70107;DHT22;57473;37.508;15.080;2022-11-14T00:34:25;14.60;96.50
70107;DHT22;57473;37.508;15.080;2022-11-14T00:37:11;14.50;96.80
70107;DHT22;57473;37.508;15.080;2022-11-14T00:39:57;14.40;97.50
70107;DHT22;57473;37.508;15.080;2022-11-14T00:42:43;14.40;97.90
70107;DHT22;57473;37.508;15.080;2022-11-14T00:45:29;14.40;98.30
70107;DHT22;57473;37.508;15.080;2022-11-14T00:48:15;14.40;98.60
70107;DHT22;57473;37.508;15.080;2022-11-14T00:51:01;14.40;98.60
70107;DHT22;57473;37.508;15.080;2022-11-14T00:53:47;14.30;98.60
70107;DHT22;57473;37.508;15.080;2022-11-14T00:56:32;14.30;98.60
70107;DHT22;57473;37.508;15.080;2022-11-14T00:59:18;14.30;99.10
70107;DHT22;57473;37.508;15.080;2022-11-14T01:02:04;14.30;99.50
70107;DHT22;57473;37.508;15.080;2022-11-14T01:04:50;14.20;99.80
70107;DHT22;57473;37.508;15.080;2022-11-14T01:07:36;14.20;99.90
70107;DHT22;57473;37.508;15.080;2022-11-14T01:10:22;14.20;99.90
70107;DHT22;57473;37.508;15.080;2022-11-14T01:13:09;14.20;99.90
70107;DHT22;57473;37.508;15.080;2022-11-14T01:15:59;14.10;99.90
70107;DHT22;57473;37.508;15.080;2022-11-14T01:18:46;14.10;99.90
70107;DHT22;57473;37.508;15.080;2022-11-14T01:21:31;14.20;99.90
70107;DHT22;57473;37.508;15.080;2022-11-14T01:24:17;14.20;99.90
70107;DHT22;57473;37.508;15.080;2022-11-14T01:27:03;14.20;99.90
70107;DHT22;57473;37.508;15.080;2022-11-14T01:29:49;14.30;99.90
70107;DHT22;57473;37.508;15.080;2022-11-14T01:32:35;14.40;99.90
70107;DHT22;57473;37.508;15.080;2022-11-14T01:35:21;14.40;99.90
70107;DHT22;57473;37.508;15.080;2022-11-14T01:38:09;14.50;99.90
70107;DHT22;57473;37.508;15.080;2022-11-14T01:40:56;14.50;99.90
70107;DHT22;57473;37.508;15.080;2022-11-14T01:43:42;14.50;99.90
70107;DHT22;57473;37.508;15.080;2022-11-14T01:46:39;14.50;99.90
70107;DHT22;57473;37.508;15.080;2022-11-14T01:49:33;14.60;99.90
70107;DHT22;57473;37.508;15.080;2022-11-14T01:52:33;14.60;99.90
70107;DHT22;57473;37.508;15.080;2022-11-14T01:55:19;14.60;99.90
70107;DHT22;57473;37.508;15.080;2022-11-14T01:58:05;14.60;99.90
70107;DHT22;57473;37.508;15.080;2022-11-14T02:00:51;14.60;99.90
70107;DHT22;57473;37.508;15.080;2022-11-14T02:03:39;14.60;99.80
70107;DHT22;57473;37.508;15.080;2022-11-14T02:06:29;14.60;99.80
70107;DHT22;57473;37.508;15.080;2022-11-14T02:09:16;14.50;99.90
70107;DHT22;57473;37.508;15.080;2022-11-14T02:12:05;14.50;99.90
70107;DHT22;57473;37.508;15.080;2022-11-14T02:14:54;14.50;99.90
70107;DHT22;57473;37.508;15.080;2022-11-14T02:17:42;14.40;99.90
70107;DHT22;57473;37.508;15.080;2022-11-14T02:20:32;14.40;99.90
70107;DHT22;57473;37.508;15.080;2022-11-14T02:23:26;14.40;99.90
70107;DHT22;57473;37.508;15.080;2022-11-14T02:26:14;14.40;99.90
70107;DHT22;57473;37.508;15.080;2022-11-14T02:29:01;14.40;99.90
70107;DHT22;57473;37.508;15.080;2022-11-14T02:31:46;14.40;99.90
70107;DHT22;57473;37.508;15.080;2022-11-14T02:34:32;14.40;99.90
70107;DHT22;57473;37.508;15.080;2022-11-14T02:37:18;14.50;99.90
70107;DHT22;57473;37.508;15.080;2022-11-14T02:40:05;14.50;99.90
70107;DHT22;57473;37.508;15.080;2022-11-14T02:42:51;14.60;99.90
70107;DHT22;57473;37.508;15.080;2022-11-14T02:45:37;14.60;99.90
70107;DHT22;57473;37.508;15.080;2022-11-14T02:48:24;14.70;99.90
70107;DHT22;57473;37.508;15.080;2022-11-14T02:51:10;14.70;99.90
70107;DHT22;57473;37.508;15.080;2022-11-14T02:53:55;14.80;99.90
70107;DHT22;57473;37.508;15.080;2022-11-14T02:56:41;14.80;99.90
70107;DHT22;57473;37.508;15.080;2022-11-14T02:59:26;14.80;99.90
70107;DHT22;57473;37.508;15.080;2022-11-14T03:02:12;14.90;99.90
70107;DHT22;57473;37.508;15.080;2022-11-14T03:04:58;14.90;99.90
70107;DHT22;57473;37.508;15.080;2022-11-14T03:07:44;15.00;99.90
70107;DHT22;57473;37.508;15.080;2022-11-14T03:10:30;15.00;99.90
70107;DHT22;57473;37.508;15.080;2022-11-14T03:13:16;15.00;99.90
70107;DHT22;57473;37.508;15.080;2022-11-14T03:16:06;15.10;99.90
70107;DHT22;57473;37.508;15.080;2022-11-14T03:18:52;15.10;99.90
70107;DHT22;57473;37.508;15.080;2022-11-14T03:21:38;15.10;99.90
70107;DHT22;57473;37.508;15.080;2022-11-14T03:24:24;15.10;99.90
70107;DHT22;57473;37.508;15.080;2022-11-14T03:27:09;15.00;99.90
70107;DHT22;57473;37.508;15.080;2022-11-14T03:29:55;15.00;99.90
70107;DHT22;57473;37.508;15.080;2022-11-14T03:32:41;15.00;99.90
70107;DHT22;57473;37.508;15.080;2022-11-14T03:35:27;15.00;99.90
70107;DHT22;57473;37.508;15.080;2022-11-14T03:38:13;15.00;99.90
70107;DHT22;57473;37.508;15.080;2022-11-14T03:40:59;15.00;99.90
70107;DHT22;57473;37.508;15.080;2022-11-14T03:43:45;15.00;99.90
70107;DHT22;57473;37.508;15.080;2022-11-14T03:46:30;15.00;99.90
70107;DHT22;57473;37.508;15.080;2022-11-14T03:49:16;15.10;99.90
70107;DHT22;57473;37.508;15.080;2022-11-14T03:52:02;15.10;99.90
70107;DHT22;57473;37.508;15.080;2022-11-14T03:54:48;15.10;99.90
70107;DHT22;57473;37.508;15.080;2022-11-14T03:57:34;15.10;99.90
70107;DHT22;57473;37.508;15.080;2022-11-14T04:00:20;15.10;99.90
70107;DHT22;57473;37.508;15.080;2022-11-14T04:03:06;15.20;99.90
70107;DHT22;57473;37.508;15.080;2022-11-14T04:05:52;15.20;99.90
70107;DHT22;57473;37.508;15.080;2022-11-14T04:08:41;15.20;99.90
70107;DHT22;57473;37.508;15.080;2022-11-14T04:11:27;15.20;99.90
70107;DHT22;57473;37.508;15.080;2022-11-14T04:14:13;15.20;99.90
70107;DHT22;57473;37.508;15.080;2022-11-14T04:16:59;15.20;99.90
70107;DHT22;57473;37.508;15.080;2022-11-14T04:19:45;15.20;99.90
70107;DHT22;57473;37.508;15.080;2022-11-14T04:22:30;15.30;99.90
70107;DHT22;57473;37.508;15.080;2022-11-14T04:25:16;15.30;99.90
70107;DHT22;57473;37.508;15.080;2022-11-14T04:28:02;15.10;99.90
70107;DHT22;57473;37.508;15.080;2022-11-14T04:30:48;14.80;99.90
70107;DHT22;57473;37.508;15.080;2022-11-14T04:33:34;14.80;99.90
70107;DHT22;57473;37.508;15.080;2022-11-14T04:36:20;14.90;99.90
70107;DHT22;57473;37.508;15.080;2022-11-14T04:39:05;15.00;99.90
70107;DHT22;57473;37.508;15.080;2022-11-14T04:41:51;15.00;99.90
70107;DHT22;57473;37.508;15.080;2022-11-14T04:44:37;15.00;99.90
70107;DHT22;57473;37.508;15.080;2022-11-14T04:47:23;14.90;99.90
70107;DHT22;57473;37.508;15.080;2022-11-14T04:50:09;14.80;99.90
70107;DHT22;57473;37.508;15.080;2022-11-14T04:52:55;14.70;99.90
70107;DHT22;57473;37.508;15.080;2022-11-14T04:55:43;14.60;99.90
70107;DHT22;57473;37.508;15.080;2022-11-14T04:58:30;14.50;99.90
70107;DHT22;57473;37.508;15.080;2022-11-14T05:01:16;14.50;99.90
70107;DHT22;57473;37.508;15.080;2022-11-14T05:04:01;14.40;99.90
70107;DHT22;57473;37.508;15.080;2022-11-14T05:06:47;14.40;99.90
70107;DHT22;57473;37.508;15.080;2022-11-14T05:09:33;14.40;99.90
70107;DHT22;57473;37.508;15.080;2022-11-14T05:12:21;14.30;99.90
70107;DHT22;57473;37.508;15.080;2022-11-14T05:15:07;14.20;99.90
70107;DHT22;57473;37.508;15.080;2022-11-14T05:17:55;14.20;99.90
70107;DHT22;57473;37.508;15.080;2022-11-14T05:20:42;14.10;99.90
70107;DHT22;57473;37.508;15.080;2022-11-14T05:23:28;14.10;99.90
70107;DHT22;57473;37.508;15.080;2022-11-14T05:26:16;14.10;99.90
70107;DHT22;57473;37.508;15.080;2022-11-14T05:29:03;14.10;99.90
70107;DHT22;57473;37.508;15.080;2022-11-14T05:31:49;14.10;99.90
70107;DHT22;57473;37.508;15.080;2022-11-14T05:34:34;14.10;99.90
70107;DHT22;57473;37.508;15.080;2022-11-14T05:37:20;14.20;99.90
70107;DHT22;57473;37.508;15.080;2022-11-14T05:40:06;14.30;99.90
70107;DHT22;57473;37.508;15.080;2022-11-14T05:42:55;14.40;99.90
70107;DHT22;57473;37.508;15.080;2022-11-14T05:45:41;14.40;99.90
70107;DHT22;57473;37.508;15.080;2022-11-14T05:48:28;14.40;99.90
70107;DHT22;57473;37.508;15.080;2022-11-14T05:51:15;14.40;99.90
70107;DHT22;57473;37.508;15.080;2022-11-14T05:54:00;14.40;99.90
70107;DHT22;57473;37.508;15.080;2022-11-14T05:56:46;14.40;99.90
70107;DHT22;57473;37.508;15.080;2022-11-14T05:59:32;14.40;99.90
70107;DHT22;57473;37.508;15.080;2022-11-14T06:02:18;14.40;99.90
70107;DHT22;57473;37.508;15.080;2022-11-14T06:05:04;14.40;99.90
70107;DHT22;57473;37.508;15.080;2022-11-14T06:07:57;14.30;99.90
70107;DHT22;57473;37.508;15.080;2022-11-14T06:10:43;14.20;99.90
70107;DHT22;57473;37.508;15.080;2022-11-14T06:13:29;14.10;99.90
70107;DHT22;57473;37.508;15.080;2022-11-14T06:16:16;14.00;99.90
70107;DHT22;57473;37.508;15.080;2022-11-14T06:19:03;13.90;99.90
70107;DHT22;57473;37.508;15.080;2022-11-14T06:21:49;13.90;99.90
70107;DHT22;57473;37.508;15.080;2022-11-14T06:24:35;13.80;99.90
70107;DHT22;57473;37.508;15.080;2022-11-14T06:27:21;13.80;99.90
70107;DHT22;57473;37.508;15.080;2022-11-14T06:30:07;13.90;99.90
70107;DHT22;57473;37.508;15.080;2022-11-14T06:32:57;13.90;99.90
70107;DHT22;57473;37.508;15.080;2022-11-14T06:35:46;14.00;99.90
70107;DHT22;57473;37.508;15.080;2022-11-14T06:38:33;14.10;99.90
70107;DHT22;57473;37.508;15.080;2022-11-14T06:41:21;14.20;99.90
70107;DHT22;57473;37.508;15.080;2022-11-14T06:44:07;14.30;99.90
70107;DHT22;57473;37.508;15.080;2022-11-14T06:46:54;14.40;99.90
70107;DHT22;57473;37.508;15.080;2022-11-14T06:49:41;14.50;99.90
70107;DHT22;57473;37.508;15.080;2022-11-14T06:52:27;14.60;99.90
70107;DHT22;57473;37.508;15.080;2022-11-14T06:55:12;14.70;99.90
70107;DHT22;57473;37.508;15.080;2022-11-14T06:57:58;14.80;99.90
70107;DHT22;57473;37.508;15.080;2022-11-14T07:00:44;14.90;99.90
70107;DHT22;57473;37.508;15.080;2022-11-14T07:03:29;15.00;99.90
70107;DHT22;57473;37.508;15.080;2022-11-14T07:06:21;15.00;99.90
70107;DHT22;57473;37.508;15.080;2022-11-14T07:09:09;15.10;99.90
70107;DHT22;57473;37.508;15.080;2022-11-14T07:11:55;15.20;99.90
70107;DHT22;57473;37.508;15.080;2022-11-14T07:14:41;15.20;99.90
70107;DHT22;57473;37.508;15.080;2022-11-14T07:17:26;15.30;99.90
70107;DHT22;57473;37.508;15.080;2022-11-14T07:20:16;15.30;99.90
70107;DHT22;57473;37.508;15.080;2022-11-14T07:23:04;15.30;99.90
70107;DHT22;57473;37.508;15.080;2022-11-14T07:25:50;15.30;99.90
70107;DHT22;57473;37.508;15.080;2022-11-14T07:28:40;15.40;99.90
70107;DHT22;57473;37.508;15.080;2022-11-14T07:31:26;15.50;99.90
70107;DHT22;57473;37.508;15.080;2022-11-14T07:34:12;15.60;99.90
70107;DHT22;57473;37.508;15.080;2022-11-14T07:36:58;15.60;99.90
70107;DHT22;57473;37.508;15.080;2022-11-14T07:39:44;15.70;99.90
70107;DHT22;57473;37.508;15.080;2022-11-14T07:42:30;15.80;99.90
70107;DHT22;57473;37.508;15.080;2022-11-14T07:45:16;15.90;99.90
70107;DHT22;57473;37.508;15.080;2022-11-14T07:48:02;15.90;99.90
70107;DHT22;57473;37.508;15.080;2022-11-14T07:50:48;15.90;99.90
70107;DHT22;57473;37.508;15.080;2022-11-14T07:53:34;15.90;99.90
70107;DHT22;57473;37.508;15.080;2022-11-14T07:56:20;16.00;99.10
70107;DHT22;57473;37.508;15.080;2022-11-14T07:59:06;16.10;99.50
70107;DHT22;57473;37.508;15.080;2022-11-14T08:01:52;16.30;98.50
70107;DHT22;57473;37.508;15.080;2022-11-14T08:04:38;16.40;96.30
70107;DHT22;57473;37.508;15.080;2022-11-14T08:07:24;16.50;94.30
70107;DHT22;57473;37.508;15.080;2022-11-14T08:10:11;16.70;93.20
70107;DHT22;57473;37.508;15.080;2022-11-14T08:12:59;16.80;92.20
70107;DHT22;57473;37.508;15.080;2022-11-14T08:16:08;16.90;91.30
70107;DHT22;57473;37.508;15.080;2022-11-14T08:18:58;17.00;90.50
70107;DHT22;57473;37.508;15.080;2022-11-14T08:21:44;17.00;90.10
70107;DHT22;57473;37.508;15.080;2022-11-14T08:24:30;17.10;89.70
70107;DHT22;57473;37.508;15.080;2022-11-14T08:27:16;17.10;89.50
70107;DHT22;57473;37.508;15.080;2022-11-14T08:30:02;17.10;89.50
70107;DHT22;57473;37.508;15.080;2022-11-14T08:32:47;17.20;89.10
70107;DHT22;57473;37.508;15.080;2022-11-14T08:35:33;17.30;88.60
70107;DHT22;57473;37.508;15.080;2022-11-14T08:38:19;17.40;88.40
70107;DHT22;57473;37.508;15.080;2022-11-14T08:41:05;17.50;87.30
70107;DHT22;57473;37.508;15.080;2022-11-14T08:43:50;17.50;86.30
70107;DHT22;57473;37.508;15.080;2022-11-14T08:46:36;17.60;86.50
70107;DHT22;57473;37.508;15.080;2022-11-14T08:49:22;17.70;85.80
70107;DHT22;57473;37.508;15.080;2022-11-14T08:52:08;17.70;85.70
70107;DHT22;57473;37.508;15.080;2022-11-14T08:55:00;17.70;85.20
70107;DHT22;57473;37.508;15.080;2022-11-14T08:57:47;17.70;85.20
70107;DHT22;57473;37.508;15.080;2022-11-14T09:00:34;17.80;85.40
70107;DHT22;57473;37.508;15.080;2022-11-14T09:03:20;17.80;85.30
70107;DHT22;57473;37.508;15.080;2022-11-14T09:06:06;17.90;84.90
70107;DHT22;57473;37.508;15.080;2022-11-14T09:08:52;17.90;84.20
70107;DHT22;57473;37.508;15.080;2022-11-14T09:11:38;17.80;84.80
70107;DHT22;57473;37.508;15.080;2022-11-14T09:14:23;17.70;85.40
70107;DHT22;57473;37.508;15.080;2022-11-14T09:17:09;17.60;86.70
70107;DHT22;57473;37.508;15.080;2022-11-14T09:19:55;17.60;86.80
70107;DHT22;57473;37.508;15.080;2022-11-14T09:22:41;17.60;87.10
70107;DHT22;57473;37.508;15.080;2022-11-14T09:25:27;17.70;86.20
70107;DHT22;57473;37.508;15.080;2022-11-14T09:28:13;17.70;84.50
70107;DHT22;57473;37.508;15.080;2022-11-14T09:31:04;17.90;84.60
70107;DHT22;57473;37.508;15.080;2022-11-14T09:33:51;18.10;83.60
70107;DHT22;57473;37.508;15.080;2022-11-14T09:36:37;18.30;80.40
70107;DHT22;57473;37.508;15.080;2022-11-14T09:39:22;18.40;79.40
70107;DHT22;57473;37.508;15.080;2022-11-14T09:42:29;18.50;78.60
70107;DHT22;57473;37.508;15.080;2022-11-14T09:45:19;18.70;76.70
70107;DHT22;57473;37.508;15.080;2022-11-14T09:48:18;18.80;75.20
70107;DHT22;57473;37.508;15.080;2022-11-14T09:51:08;19.10;74.10
70107;DHT22;57473;37.508;15.080;2022-11-14T09:54:23;19.40;71.90
70107;DHT22;57473;37.508;15.080;2022-11-14T09:57:17;19.80;69.30
70107;DHT22;57473;37.508;15.080;2022-11-14T10:00:15;20.30;66.50
70107;DHT22;57473;37.508;15.080;2022-11-14T10:03:14;20.40;65.80
70107;DHT22;57473;37.508;15.080;2022-11-14T10:12:52;20.20;65.10
70107;DHT22;57473;37.508;15.080;2022-11-14T10:16:03;20.20;64.90
70107;DHT22;57473;37.508;15.080;2022-11-14T10:22:10;20.00;65.00
70107;DHT22;57473;37.508;15.080;2022-11-14T10:34:28;19.90;64.10
70107;DHT22;57473;37.508;15.080;2022-11-14T10:37:44;19.80;64.00
70107;DHT22;57473;37.508;15.080;2022-11-14T10:40:54;19.80;64.60
70107;DHT22;57473;37.508;15.080;2022-11-14T10:43:51;19.90;64.60
70107;DHT22;57473;37.508;15.080;2022-11-14T10:46:44;19.90;64.90
70107;DHT22;57473;37.508;15.080;2022-11-14T10:49:34;19.90;65.50
70107;DHT22;57473;37.508;15.080;2022-11-14T10:52:27;19.90;65.40
70107;DHT22;57473;37.508;15.080;2022-11-14T10:55:17;19.90;65.50
70107;DHT22;57473;37.508;15.080;2022-11-14T10:58:11;20.00;65.60
70107;DHT22;57473;37.508;15.080;2022-11-14T11:04:27;20.30;63.20
70107;DHT22;57473;37.508;15.080;2022-11-14T11:07:22;20.40;63.70
70107;DHT22;57473;37.508;15.080;2022-11-14T11:10:42;20.60;62.30
70107;DHT22;57473;37.508;15.080;2022-11-14T11:13:56;20.60;62.60
70107;DHT22;57473;37.508;15.080;2022-11-14T11:16:45;20.60;64.00
70107;DHT22;57473;37.508;15.080;2022-11-14T11:19:31;20.60;65.60
70107;DHT22;57473;37.508;15.080;2022-11-14T11:22:29;20.60;66.70
70107;DHT22;57473;37.508;15.080;2022-11-14T11:25:25;20.70;67.20
70107;DHT22;57473;37.508;15.080;2022-11-14T11:28:19;20.70;67.40
70107;DHT22;57473;37.508;15.080;2022-11-14T11:31:10;20.80;67.40
70107;DHT22;57473;37.508;15.080;2022-11-14T11:34:02;20.90;67.70
70107;DHT22;57473;37.508;15.080;2022-11-14T11:36:52;20.80;67.00
70107;DHT22;57473;37.508;15.080;2022-11-14T11:39:44;20.70;66.90
70107;DHT22;57473;37.508;15.080;2022-11-14T11:42:46;20.90;67.50
70107;DHT22;57473;37.508;15.080;2022-11-14T11:45:54;21.10;66.60
70107;DHT22;57473;37.508;15.080;2022-11-14T11:48:41;21.30;66.20
70107;DHT22;57473;37.508;15.080;2022-11-14T11:51:27;21.50;66.10
70107;DHT22;57473;37.508;15.080;2022-11-14T11:54:18;21.60;66.70
70107;DHT22;57473;37.508;15.080;2022-11-14T11:57:11;21.90;66.20
70107;DHT22;57473;37.508;15.080;2022-11-14T12:00:16;22.20;65.20
70107;DHT22;57473;37.508;15.080;2022-11-14T12:03:08;23.00;61.40
70107;DHT22;57473;37.508;15.080;2022-11-14T12:25:33;23.50;54.10
70107;DHT22;57473;37.508;15.080;2022-11-14T12:31:16;23.20;54.10
70107;DHT22;57473;37.508;15.080;2022-11-14T12:34:25;23.10;53.90
70107;DHT22;57473;37.508;15.080;2022-11-14T12:37:34;23.30;52.90
70107;DHT22;57473;37.508;15.080;2022-11-14T12:40:30;23.50;52.10
70107;DHT22;57473;37.508;15.080;2022-11-14T12:46:10;23.60;51.30
70107;DHT22;57473;37.508;15.080;2022-11-14T12:48:57;23.40;51.40
70107;DHT22;57473;37.508;15.080;2022-11-14T12:51:47;23.20;52.00
70107;DHT22;57473;37.508;15.080;2022-11-14T12:54:52;23.10;52.50
70107;DHT22;57473;37.508;15.080;2022-11-14T12:57:45;23.10;52.40
70107;DHT22;57473;37.508;15.080;2022-11-14T13:00:39;22.90;53.20
70107;DHT22;57473;37.508;15.080;2022-11-14T13:07:21;22.80;53.90
70107;DHT22;57473;37.508;15.080;2022-11-14T13:10:50;22.70;54.30
70107;DHT22;57473;37.508;15.080;2022-11-14T13:13:58;22.70;55.40
70107;DHT22;57473;37.508;15.080;2022-11-14T13:20:34;22.30;57.20
70107;DHT22;57473;37.508;15.080;2022-11-14T13:35:41;22.00;58.70
70107;DHT22;57473;37.508;15.080;2022-11-14T13:38:32;22.00;58.70
70107;DHT22;57473;37.508;15.080;2022-11-14T13:41:50;21.90;59.40
70107;DHT22;57473;37.508;15.080;2022-11-14T13:50:28;21.70;60.80
70107;DHT22;57473;37.508;15.080;2022-11-14T13:53:22;21.50;61.60
70107;DHT22;57473;37.508;15.080;2022-11-14T14:20:52;21.40;61.80
70107;DHT22;57473;37.508;15.080;2022-11-14T14:33:02;21.30;63.20
70107;DHT22;57473;37.508;15.080;2022-11-14T14:35:50;21.20;63.80
70107;DHT22;57473;37.508;15.080;2022-11-14T14:38:36;21.20;63.70
70107;DHT22;57473;37.508;15.080;2022-11-14T14:41:22;21.10;64.20
70107;DHT22;57473;37.508;15.080;2022-11-14T14:44:37;21.00;64.50
70107;DHT22;57473;37.508;15.080;2022-11-14T14:47:39;21.00;65.00
70107;DHT22;57473;37.508;15.080;2022-11-14T14:51:00;20.90;65.30
70107;DHT22;57473;37.508;15.080;2022-11-14T14:53:55;20.80;65.90
70107;DHT22;57473;37.508;15.080;2022-11-14T14:56:52;20.80;66.60
70107;DHT22;57473;37.508;15.080;2022-11-14T14:59:38;20.70;66.90
70107;DHT22;57473;37.508;15.080;2022-11-14T15:02:27;20.70;67.40
70107;DHT22;57473;37.508;15.080;2022-11-14T15:05:21;20.60;67.90
70107;DHT22;57473;37.508;15.080;2022-11-14T15:08:13;20.50;68.10
70107;DHT22;57473;37.508;15.080;2022-11-14T15:11:00;20.50;68.40
70107;DHT22;57473;37.508;15.080;2022-11-14T15:13:52;20.40;68.90
70107;DHT22;57473;37.508;15.080;2022-11-14T15:16:39;20.40;69.20
70107;DHT22;57473;37.508;15.080;2022-11-14T15:19:36;20.30;69.70
70107;DHT22;57473;37.508;15.080;2022-11-14T15:22:25;20.20;70.30
70107;DHT22;57473;37.508;15.080;2022-11-14T15:27:56;20.10;71.30
70107;DHT22;57473;37.508;15.080;2022-11-14T15:31:02;20.00;71.70
70107;DHT22;57473;37.508;15.080;2022-11-14T15:34:05;19.90;72.20
70107;DHT22;57473;37.508;15.080;2022-11-14T15:40:20;19.70;73.60
70107;DHT22;57473;37.508;15.080;2022-11-14T15:49:26;19.40;74.70
70107;DHT22;57473;37.508;15.080;2022-11-14T15:52:23;19.30;75.30
70107;DHT22;57473;37.508;15.080;2022-11-14T15:55:18;19.20;75.80
70107;DHT22;57473;37.508;15.080;2022-11-14T15:58:10;19.10;76.10
70107;DHT22;57473;37.508;15.080;2022-11-14T16:01:21;19.00;76.80
70107;DHT22;57473;37.508;15.080;2022-11-14T16:04:20;18.90;77.10
70107;DHT22;57473;37.508;15.080;2022-11-14T16:07:12;18.80;77.60
70107;DHT22;57473;37.508;15.080;2022-11-14T16:09:58;18.70;78.00
70107;DHT22;57473;37.508;15.080;2022-11-14T16:12:44;18.60;78.50
70107;DHT22;57473;37.508;15.080;2022-11-14T16:15:37;18.60;78.90
70107;DHT22;57473;37.508;15.080;2022-11-14T16:18:23;18.50;79.60
70107;DHT22;57473;37.508;15.080;2022-11-14T16:21:14;18.50;80.20
70107;DHT22;57473;37.508;15.080;2022-11-14T16:24:00;18.40;80.40
70107;DHT22;57473;37.508;15.080;2022-11-14T16:26:47;18.30;80.90
70107;DHT22;57473;37.508;15.080;2022-11-14T16:29:33;18.20;81.40
70107;DHT22;57473;37.508;15.080;2022-11-14T16:32:18;18.20;82.00
70107;DHT22;57473;37.508;15.080;2022-11-14T16:35:09;18.20;82.20
70107;DHT22;57473;37.508;15.080;2022-11-14T16:37:57;18.10;82.70
70107;DHT22;57473;37.508;15.080;2022-11-14T16:40:43;18.10;83.10
70107;DHT22;57473;37.508;15.080;2022-11-14T16:43:28;18.10;83.20
70107;DHT22;57473;37.508;15.080;2022-11-14T16:46:15;18.00;83.60
70107;DHT22;57473;37.508;15.080;2022-11-14T16:49:00;18.00;83.40
70107;DHT22;57473;37.508;15.080;2022-11-14T16:51:47;18.10;83.60
70107;DHT22;57473;37.508;15.080;2022-11-14T16:54:36;18.00;83.80
70107;DHT22;57473;37.508;15.080;2022-11-14T16:57:23;18.00;84.10
70107;DHT22;57473;37.508;15.080;2022-11-14T17:00:10;18.00;84.50
70107;DHT22;57473;37.508;15.080;2022-11-14T17:02:57;18.00;84.70
70107;DHT22;57473;37.508;15.080;2022-11-14T17:05:50;18.00;84.70
70107;DHT22;57473;37.508;15.080;2022-11-14T17:08:36;18.00;84.60
70107;DHT22;57473;37.508;15.080;2022-11-14T17:11:23;18.00;84.70
70107;DHT22;57473;37.508;15.080;2022-11-14T17:14:10;17.90;84.90
70107;DHT22;57473;37.508;15.080;2022-11-14T17:16:55;17.90;85.40
70107;DHT22;57473;37.508;15.080;2022-11-14T17:19:50;17.80;85.70
70107;DHT22;57473;37.508;15.080;2022-11-14T17:22:36;17.80;86.10
70107;DHT22;57473;37.508;15.080;2022-11-14T17:25:22;17.80;86.10
70107;DHT22;57473;37.508;15.080;2022-11-14T17:28:08;17.80;86.40
70107;DHT22;57473;37.508;15.080;2022-11-14T17:30:54;17.70;86.40
70107;DHT22;57473;37.508;15.080;2022-11-14T17:33:40;17.70;86.60
70107;DHT22;57473;37.508;15.080;2022-11-14T17:36:27;17.70;86.80
70107;DHT22;57473;37.508;15.080;2022-11-14T17:39:13;17.70;87.00
70107;DHT22;57473;37.508;15.080;2022-11-14T17:41:59;17.60;87.20
70107;DHT22;57473;37.508;15.080;2022-11-14T17:44:45;17.60;87.40
70107;DHT22;57473;37.508;15.080;2022-11-14T17:47:31;17.60;87.50
70107;DHT22;57473;37.508;15.080;2022-11-14T17:50:17;17.60;88.00
70107;DHT22;57473;37.508;15.080;2022-11-14T17:53:03;17.60;87.90
70107;DHT22;57473;37.508;15.080;2022-11-14T17:55:55;17.60;88.20
70107;DHT22;57473;37.508;15.080;2022-11-14T17:58:44;17.60;88.20
70107;DHT22;57473;37.508;15.080;2022-11-14T18:01:30;17.50;88.60
70107;DHT22;57473;37.508;15.080;2022-11-14T18:04:16;17.50;88.80
70107;DHT22;57473;37.508;15.080;2022-11-14T18:07:02;17.50;88.90
70107;DHT22;57473;37.508;15.080;2022-11-14T18:09:48;17.60;88.60
70107;DHT22;57473;37.508;15.080;2022-11-14T18:12:34;17.60;88.60
70107;DHT22;57473;37.508;15.080;2022-11-14T18:15:20;17.60;88.60
70107;DHT22;57473;37.508;15.080;2022-11-14T18:18:12;17.60;88.70
70107;DHT22;57473;37.508;15.080;2022-11-14T18:21:14;17.60;88.80
70107;DHT22;57473;37.508;15.080;2022-11-14T18:24:00;17.60;89.00
70107;DHT22;57473;37.508;15.080;2022-11-14T18:26:46;17.50;89.20
70107;DHT22;57473;37.508;15.080;2022-11-14T18:29:31;17.50;89.20
70107;DHT22;57473;37.508;15.080;2022-11-14T18:32:17;17.50;89.60
70107;DHT22;57473;37.508;15.080;2022-11-14T18:35:04;17.50;89.60
70107;DHT22;57473;37.508;15.080;2022-11-14T18:37:49;17.40;89.90
70107;DHT22;57473;37.508;15.080;2022-11-14T18:40:35;17.40;90.00
70107;DHT22;57473;37.508;15.080;2022-11-14T18:43:21;17.30;90.40
70107;DHT22;57473;37.508;15.080;2022-11-14T18:46:13;17.30;90.70
70107;DHT22;57473;37.508;15.080;2022-11-14T18:49:00;17.30;90.80
70107;DHT22;57473;37.508;15.080;2022-11-14T18:51:45;17.20;90.70
70107;DHT22;57473;37.508;15.080;2022-11-14T18:54:31;17.20;91.00
70107;DHT22;57473;37.508;15.080;2022-11-14T18:57:16;17.10;91.30
70107;DHT22;57473;37.508;15.080;2022-11-14T19:00:03;17.00;91.60
70107;DHT22;57473;37.508;15.080;2022-11-14T19:02:49;16.90;91.90
70107;DHT22;57473;37.508;15.080;2022-11-14T19:05:35;16.90;92.00
70107;DHT22;57473;37.508;15.080;2022-11-14T19:08:21;16.80;92.30
70107;DHT22;57473;37.508;15.080;2022-11-14T19:11:12;16.70;92.50
70107;DHT22;57473;37.508;15.080;2022-11-14T19:14:18;16.70;92.80
70107;DHT22;57473;37.508;15.080;2022-11-14T19:17:04;16.60;93.00
70107;DHT22;57473;37.508;15.080;2022-11-14T19:19:51;16.50;93.10
70107;DHT22;57473;37.508;15.080;2022-11-14T19:22:39;16.50;93.40
70107;DHT22;57473;37.508;15.080;2022-11-14T19:25:25;16.40;93.10
70107;DHT22;57473;37.508;15.080;2022-11-14T19:28:10;16.40;93.40
70107;DHT22;57473;37.508;15.080;2022-11-14T19:31:04;16.30;92.90